createdAt,value
2019-05-09T00:01:36.492Z,15.70
2019-05-09T00:04:05.557Z,15.70
2019-05-09T00:06:35.002Z,15.70
2019-05-09T00:09:05.241Z,15.70
2019-05-09T00:11:34.284Z,15.70
2019-05-09T00:14:04.419Z,15.70
2019-05-09T00:16:33.892Z,15.70
2019-05-09T00:19:03.439Z,15.70
2019-05-09T00:21:38.314Z,15.70
2019-05-09T00:24:07.612Z,15.70
2019-05-09T00:26:36.634Z,15.70
2019-05-09T00:29:10.372Z,15.60
2019-05-09T00:31:49.959Z,15.50
2019-05-09T00:34:30.854Z,15.50
2019-05-09T00:37:00.007Z,15.50
2019-05-09T00:40:06.272Z,15.60
2019-05-09T00:42:27.290Z,15.50
2019-05-09T00:44:58.047Z,15.50
2019-05-09T00:47:28.068Z,15.50
2019-05-09T00:49:57.218Z,15.50
2019-05-09T00:52:26.399Z,15.50
2019-05-09T00:54:55.413Z,15.50
2019-05-09T00:57:36.403Z,15.50
2019-05-09T01:00:14.572Z,15.50
2019-05-09T01:02:43.548Z,15.50
2019-05-09T01:05:13.310Z,15.50
2019-05-09T01:07:43.149Z,15.50
2019-05-09T01:10:13.340Z,15.50
2019-05-09T01:12:43.524Z,15.50
2019-05-09T01:15:13.452Z,15.40
2019-05-09T01:17:44.193Z,15.40
2019-05-09T01:20:14.718Z,15.30
2019-05-09T01:22:44.308Z,15.30
2019-05-09T01:25:13.543Z,15.40
2019-05-09T01:27:43.158Z,15.40
2019-05-09T01:30:13.550Z,15.40
2019-05-09T01:33:18.558Z,15.30
2019-05-09T01:35:47.536Z,15.40
2019-05-09T01:38:16.641Z,15.30
2019-05-09T01:40:45.576Z,15.40
2019-05-09T01:43:14.576Z,15.30
2019-05-09T01:45:47.047Z,15.30
2019-05-09T01:48:14.807Z,15.30
2019-05-09T01:50:43.756Z,15.40
2019-05-09T01:53:14.608Z,15.40
2019-05-09T01:55:59.023Z,15.40
2019-05-09T01:58:29.952Z,15.30
2019-05-09T02:00:59.031Z,15.30
2019-05-09T02:03:28.260Z,15.30
2019-05-09T02:05:57.386Z,15.30
2019-05-09T02:08:26.440Z,15.30
2019-05-09T02:10:55.937Z,15.30
2019-05-09T02:13:25.029Z,15.30
2019-05-09T02:16:14.159Z,15.30
2019-05-09T02:18:48.947Z,15.30
2019-05-09T02:21:17.801Z,15.30
2019-05-09T02:23:46.947Z,15.30
2019-05-09T02:26:15.874Z,15.30
2019-05-09T02:28:44.847Z,15.30
2019-05-09T02:31:16.382Z,15.20
2019-05-09T02:33:45.824Z,15.20
2019-05-09T02:36:14.945Z,15.20
2019-05-09T02:38:43.893Z,15.30
2019-05-09T02:41:13.236Z,15.30
2019-05-09T02:43:42.363Z,15.30
2019-05-09T02:46:30.463Z,15.20
2019-05-09T02:48:59.715Z,15.20
2019-05-09T02:51:29.351Z,15.20
2019-05-09T02:53:58.911Z,15.20
2019-05-09T02:56:29.419Z,15.20
2019-05-09T02:59:18.998Z,15.20
2019-05-09T03:01:58.702Z,15.20
2019-05-09T03:04:28.527Z,15.20
2019-05-09T03:06:59.718Z,15.20
2019-05-09T03:09:28.886Z,15.20
2019-05-09T03:11:59.271Z,15.20
2019-05-09T03:14:28.931Z,15.20
2019-05-09T03:16:58.933Z,15.20
2019-05-09T03:19:29.728Z,15.20
2019-05-09T03:22:02.641Z,15.20
2019-05-09T03:24:31.604Z,15.20
2019-05-09T03:27:08.345Z,15.20
2019-05-09T03:29:43.243Z,15.20
2019-05-09T03:32:12.305Z,15.30
2019-05-09T03:34:41.295Z,15.30
2019-05-09T03:37:11.915Z,15.20
2019-05-09T03:39:40.947Z,15.20
2019-05-09T03:42:10.289Z,15.20
2019-05-09T03:44:39.291Z,15.20
2019-05-09T03:47:27.627Z,15.20
2019-05-09T03:50:14.473Z,15.20
2019-05-09T03:52:43.703Z,15.20
2019-05-09T03:55:17.908Z,15.20
2019-05-09T03:57:54.343Z,15.20
2019-05-09T04:00:24.501Z,15.20
2019-05-09T04:02:53.950Z,15.30
2019-05-09T04:05:23.208Z,15.30
2019-05-09T04:07:52.269Z,15.30
2019-05-09T04:10:21.759Z,15.30
2019-05-09T04:12:55.859Z,15.30
2019-05-09T04:15:21.993Z,15.30
2019-05-09T04:17:51.055Z,15.30
2019-05-09T04:20:20.237Z,15.30
2019-05-09T04:22:49.342Z,15.30
2019-05-09T04:25:22.679Z,15.30
2019-05-09T04:27:52.852Z,15.40
2019-05-09T04:30:22.452Z,15.30
2019-05-09T04:32:51.926Z,15.40
2019-05-09T04:35:22.459Z,15.40
2019-05-09T04:37:51.670Z,15.40
2019-05-09T04:40:20.812Z,15.40
2019-05-09T04:42:50.762Z,15.40
2019-05-09T04:45:28.328Z,15.40
2019-05-09T04:47:58.028Z,15.40
2019-05-09T04:50:27.909Z,15.40
2019-05-09T04:52:58.090Z,15.40
2019-05-09T04:55:29.101Z,15.50
2019-05-09T04:58:00.166Z,15.50
2019-05-09T05:00:40.764Z,15.50
2019-05-09T05:03:10.831Z,15.50
2019-05-09T05:05:44.595Z,15.50
2019-05-09T05:08:13.758Z,15.50
2019-05-09T05:10:43.293Z,15.50
2019-05-09T05:13:25.737Z,15.50
2019-05-09T05:15:44.007Z,15.50
2019-05-09T05:18:13.114Z,15.50
2019-05-09T05:20:42.429Z,15.50
2019-05-09T05:23:27.654Z,15.50
2019-05-09T05:25:57.995Z,15.60
2019-05-09T05:28:27.894Z,15.60
2019-05-09T05:30:58.231Z,15.70
2019-05-09T05:33:34.084Z,15.70
2019-05-09T05:36:07.941Z,15.70
2019-05-09T05:38:37.726Z,15.70
2019-05-09T05:41:08.015Z,15.80
2019-05-09T05:43:44.025Z,15.70
2019-05-09T05:46:50.415Z,15.80
2019-05-09T05:49:18.620Z,15.80
2019-05-09T05:51:51.717Z,15.80
2019-05-09T05:54:21.636Z,15.80
2019-05-09T05:56:51.020Z,15.90
2019-05-09T05:59:20.409Z,15.90
2019-05-09T06:01:49.521Z,15.90
2019-05-09T06:04:22.945Z,15.90
2019-05-09T06:06:51.914Z,15.90
2019-05-09T06:09:21.283Z,15.90
2019-05-09T06:11:50.744Z,15.90
2019-05-09T06:14:21.800Z,15.90
2019-05-09T06:16:51.067Z,15.90
2019-05-09T06:19:22.356Z,15.90
2019-05-09T06:21:52.319Z,15.90
2019-05-09T06:24:21.697Z,16.00
2019-05-09T06:26:50.994Z,16.00
2019-05-09T06:29:20.166Z,16.10
2019-05-09T06:31:49.301Z,16.10
2019-05-09T06:34:19.115Z,16.20
2019-05-09T06:36:49.277Z,16.20
2019-05-09T06:39:18.951Z,16.30
2019-05-09T06:41:48.547Z,16.30
2019-05-09T06:44:24.482Z,16.30
2019-05-09T06:47:00.387Z,16.30
2019-05-09T06:49:34.828Z,16.30
2019-05-09T06:52:04.745Z,16.20
2019-05-09T06:54:33.786Z,16.20
2019-05-09T06:57:03.150Z,16.30
2019-05-09T06:59:32.292Z,16.30
2019-05-09T07:02:04.414Z,16.30
2019-05-09T07:04:52.480Z,16.40
2019-05-09T07:07:29.838Z,16.40
2019-05-09T07:10:00.563Z,16.40
2019-05-09T07:12:29.808Z,16.40
2019-05-09T07:14:59.043Z,16.50
2019-05-09T07:17:31.664Z,16.50
2019-05-09T07:19:59.218Z,16.40
2019-05-09T07:22:33.512Z,16.40
2019-05-09T07:25:27.615Z,16.50
2019-05-09T07:27:58.498Z,16.50
2019-05-09T07:30:37.585Z,16.40
2019-05-09T07:33:19.599Z,16.40
2019-05-09T07:35:48.761Z,16.50
2019-05-09T07:38:28.496Z,16.50
2019-05-09T07:40:58.547Z,16.60
2019-05-09T07:43:28.263Z,16.60
2019-05-09T07:46:17.714Z,16.70
2019-05-09T07:48:48.330Z,16.70
2019-05-09T07:51:18.152Z,16.70
2019-05-09T07:53:48.199Z,16.80
2019-05-09T07:56:18.689Z,16.80
2019-05-09T07:58:48.135Z,16.80
2019-05-09T08:01:19.037Z,16.80
2019-05-09T08:03:49.134Z,16.80
2019-05-09T08:06:18.627Z,16.90
2019-05-09T08:08:47.948Z,16.90
2019-05-09T08:11:18.220Z,17.00
2019-05-09T08:13:48.587Z,16.90
2019-05-09T08:16:18.663Z,16.80
2019-05-09T08:18:48.514Z,16.80
2019-05-09T08:21:18.200Z,16.70
2019-05-09T08:23:48.496Z,16.70
2019-05-09T08:26:18.826Z,16.80
2019-05-09T08:28:48.734Z,16.90
2019-05-09T08:31:17.952Z,16.90
2019-05-09T08:33:48.545Z,16.90
2019-05-09T08:36:20.281Z,17.00
2019-05-09T08:38:48.914Z,17.00
2019-05-09T08:41:18.614Z,17.00
2019-05-09T08:43:48.521Z,17.00
2019-05-09T08:46:18.141Z,17.10
2019-05-09T08:48:48.559Z,17.20
2019-05-09T08:51:41.306Z,17.20
2019-05-09T08:54:09.720Z,17.20
2019-05-09T08:56:38.866Z,17.30
2019-05-09T08:59:08.957Z,17.40
2019-05-09T09:02:04.459Z,17.40
2019-05-09T09:04:09.084Z,17.50
2019-05-09T09:06:43.888Z,17.60
2019-05-09T09:09:13.591Z,17.70
2019-05-09T09:11:43.214Z,17.80
2019-05-09T09:14:12.506Z,17.90
2019-05-09T09:16:44.870Z,18.00
2019-05-09T09:19:13.893Z,18.10
2019-05-09T09:21:47.598Z,18.10
2019-05-09T09:24:17.700Z,18.30
2019-05-09T09:26:48.441Z,18.40
2019-05-09T09:29:17.897Z,18.60
2019-05-09T09:31:50.381Z,18.60
2019-05-09T09:34:19.319Z,18.60
2019-05-09T09:36:48.893Z,18.50
2019-05-09T09:39:18.567Z,18.50
2019-05-09T09:41:48.274Z,18.50
2019-05-09T09:44:18.278Z,18.50
2019-05-09T09:46:48.420Z,18.50
2019-05-09T09:49:19.993Z,18.60
2019-05-09T09:51:49.131Z,18.50
2019-05-09T09:54:18.970Z,18.60
2019-05-09T09:56:49.553Z,18.60
2019-05-09T09:59:48.477Z,18.50
2019-05-09T10:02:20.180Z,18.60
2019-05-09T10:04:49.453Z,18.60
2019-05-09T10:07:19.034Z,18.60
2019-05-09T10:09:48.229Z,18.70
2019-05-09T10:12:18.205Z,18.70
2019-05-09T10:14:54.540Z,18.70
2019-05-09T10:17:42.940Z,18.60
2019-05-09T10:20:18.296Z,18.50
2019-05-09T10:22:58.784Z,18.50
2019-05-09T10:25:18.390Z,18.50
2019-05-09T10:27:48.854Z,18.50
2019-05-09T10:30:21.117Z,18.60
2019-05-09T10:32:50.080Z,18.70
2019-05-09T10:35:24.046Z,18.80
2019-05-09T10:37:53.231Z,18.80
2019-05-09T10:40:23.617Z,18.90
2019-05-09T10:42:58.702Z,19.00
2019-05-09T10:45:45.333Z,18.90
2019-05-09T10:48:14.667Z,18.90
2019-05-09T10:50:45.714Z,18.90
2019-05-09T10:53:17.958Z,18.80
2019-05-09T10:55:48.125Z,18.70
2019-05-09T10:58:20.207Z,18.60
2019-05-09T11:00:48.655Z,18.50
2019-05-09T11:03:18.126Z,18.40
2019-05-09T11:05:47.374Z,18.30
2019-05-09T11:08:18.460Z,18.20
2019-05-09T11:10:47.545Z,18.20
2019-05-09T11:13:18.207Z,18.20
2019-05-09T11:15:48.002Z,18.20
2019-05-09T11:18:18.525Z,18.10
2019-05-09T11:20:48.238Z,18.10
2019-05-09T11:23:19.333Z,18.10
2019-05-09T11:25:48.262Z,18.10
2019-05-09T11:28:17.964Z,18.20
2019-05-09T11:30:47.711Z,18.30
2019-05-09T11:33:18.305Z,18.50
2019-05-09T11:35:48.052Z,18.60
2019-05-09T11:38:29.787Z,18.60
2019-05-09T11:40:48.782Z,18.60
2019-05-09T11:43:18.697Z,18.60
2019-05-09T11:45:47.936Z,18.70
2019-05-09T11:48:18.643Z,18.70
2019-05-09T11:50:48.276Z,18.90
2019-05-09T11:53:17.721Z,19.00
2019-05-09T11:55:48.287Z,19.00
2019-05-09T11:58:18.217Z,19.10
2019-05-09T12:00:48.746Z,19.00
2019-05-09T12:03:18.877Z,19.10
2019-05-09T12:05:48.182Z,19.00
2019-05-09T12:08:17.750Z,18.80
2019-05-09T12:10:48.363Z,18.80
2019-05-09T12:13:18.585Z,18.80
2019-05-09T12:15:49.009Z,18.80
2019-05-09T12:18:18.287Z,18.90
2019-05-09T12:20:48.389Z,18.90
2019-05-09T12:23:19.894Z,19.00
2019-05-09T12:25:48.701Z,19.10
2019-05-09T12:28:18.938Z,19.00
2019-05-09T12:30:49.060Z,18.90
2019-05-09T12:33:19.239Z,18.80
2019-05-09T12:35:48.274Z,18.80
2019-05-09T12:38:18.063Z,18.80
2019-05-09T12:40:48.209Z,18.80
2019-05-09T12:43:18.649Z,18.70
2019-05-09T12:45:47.978Z,18.50
2019-05-09T12:48:19.523Z,18.40
2019-05-09T12:50:48.866Z,18.40
2019-05-09T12:53:19.039Z,18.40
2019-05-09T12:55:51.322Z,18.40
2019-05-09T12:58:29.612Z,18.40
2019-05-09T13:00:59.866Z,18.40
2019-05-09T13:03:29.868Z,18.60
2019-05-09T13:05:59.317Z,18.80
2019-05-09T13:08:31.089Z,18.90
2019-05-09T13:11:02.463Z,19.00
2019-05-09T13:13:32.349Z,19.10
2019-05-09T13:16:20.903Z,19.20
2019-05-09T13:19:07.269Z,19.20
2019-05-09T13:21:38.906Z,19.20
2019-05-09T13:24:08.374Z,19.20
2019-05-09T13:26:38.504Z,19.00
2019-05-09T13:29:08.417Z,19.00
2019-05-09T13:31:39.950Z,18.90
2019-05-09T13:34:09.124Z,18.80
2019-05-09T13:36:38.217Z,18.70
2019-05-09T13:39:10.785Z,18.80
2019-05-09T13:41:40.682Z,18.80
2019-05-09T13:44:13.464Z,18.90
2019-05-09T13:46:43.568Z,19.00
2019-05-09T13:49:16.246Z,19.00
2019-05-09T13:51:50.715Z,19.00
2019-05-09T13:54:18.557Z,19.00
2019-05-09T13:56:50.532Z,19.00
2019-05-09T13:59:18.662Z,19.10
2019-05-09T14:01:48.114Z,19.10
2019-05-09T14:04:17.786Z,19.30
2019-05-09T14:06:48.702Z,19.30
2019-05-09T14:09:19.919Z,19.40
2019-05-09T14:11:48.751Z,19.50
2019-05-09T14:14:18.163Z,19.50
2019-05-09T14:16:47.993Z,19.60
2019-05-09T14:19:35.915Z,19.70
2019-05-09T14:21:48.271Z,19.80
2019-05-09T14:24:19.288Z,19.90
2019-05-09T14:26:48.745Z,20.00
2019-05-09T14:29:20.567Z,20.10
2019-05-09T14:31:48.536Z,20.00
2019-05-09T14:34:19.695Z,20.00
2019-05-09T14:36:49.949Z,19.90
2019-05-09T14:39:19.747Z,20.00
2019-05-09T14:41:49.043Z,20.00
2019-05-09T14:44:19.382Z,20.10
2019-05-09T14:46:51.063Z,20.00
2019-05-09T14:49:21.709Z,20.00
2019-05-09T14:51:50.905Z,20.10
2019-05-09T14:54:20.009Z,20.20
2019-05-09T14:56:50.244Z,20.30
2019-05-09T14:59:20.374Z,20.30
2019-05-09T15:01:49.780Z,20.30
2019-05-09T15:04:19.129Z,20.20
2019-05-09T15:06:48.787Z,20.20
2019-05-09T15:09:18.493Z,20.10
2019-05-09T15:11:48.655Z,20.10
2019-05-09T15:14:18.440Z,20.00
2019-05-09T15:16:50.068Z,20.00
2019-05-09T15:19:19.792Z,20.00
2019-05-09T15:21:49.384Z,20.00
2019-05-09T15:24:19.329Z,20.00
2019-05-09T15:26:49.176Z,20.00
2019-05-09T15:29:18.706Z,20.00
2019-05-09T15:31:54.228Z,19.90
2019-05-09T15:34:19.274Z,19.80
2019-05-09T15:36:48.538Z,19.70
2019-05-09T15:39:18.362Z,19.50
2019-05-09T15:41:48.169Z,19.40
2019-05-09T15:44:18.872Z,19.40
2019-05-09T15:46:59.178Z,19.40
2019-05-09T15:49:28.626Z,19.50
2019-05-09T15:51:58.460Z,19.70
2019-05-09T15:54:29.415Z,19.90
2019-05-09T15:57:00.533Z,20.00
2019-05-09T15:59:29.749Z,20.10
2019-05-09T16:01:58.957Z,20.10
2019-05-09T16:04:28.226Z,20.00
2019-05-09T16:06:57.699Z,20.00
2019-05-09T16:09:28.584Z,19.90
2019-05-09T16:11:59.021Z,19.80
2019-05-09T16:14:28.688Z,19.70
2019-05-09T16:16:58.027Z,19.70
2019-05-09T16:19:30.629Z,19.80
2019-05-09T16:22:02.118Z,19.90
2019-05-09T16:24:32.573Z,20.10
2019-05-09T16:27:01.687Z,20.20
2019-05-09T16:29:32.822Z,20.30
2019-05-09T16:32:02.659Z,20.40
2019-05-09T16:34:32.035Z,20.40
2019-05-09T16:37:04.959Z,20.50
2019-05-09T16:39:37.877Z,20.50
2019-05-09T16:42:07.345Z,20.50
2019-05-09T16:44:37.779Z,20.40
2019-05-09T16:47:08.358Z,20.40
2019-05-09T16:49:38.966Z,20.40
2019-05-09T16:52:11.919Z,20.30
2019-05-09T16:54:43.374Z,20.30
2019-05-09T16:57:13.427Z,20.20
2019-05-09T16:59:42.865Z,20.20
2019-05-09T17:02:21.888Z,20.10
2019-05-09T17:04:47.187Z,20.10
2019-05-09T17:07:18.046Z,20.00
2019-05-09T17:09:48.510Z,20.00
2019-05-09T17:12:18.731Z,20.00
2019-05-09T17:14:48.123Z,19.90
2019-05-09T17:17:17.922Z,19.90
2019-05-09T17:19:48.071Z,19.80
2019-05-09T17:22:21.879Z,19.70
2019-05-09T17:24:51.341Z,19.70
2019-05-09T17:27:28.213Z,19.60
2019-05-09T17:29:57.647Z,19.50
2019-05-09T17:32:28.552Z,19.50
2019-05-09T17:34:58.361Z,19.40
2019-05-09T17:37:28.713Z,19.30
2019-05-09T17:39:58.096Z,19.30
2019-05-09T17:42:27.771Z,19.20
2019-05-09T17:44:57.894Z,19.30
2019-05-09T17:47:28.426Z,19.20
2019-05-09T17:49:57.531Z,19.20
2019-05-09T17:52:26.540Z,19.20
2019-05-09T17:54:56.018Z,19.10
2019-05-09T17:57:27.752Z,19.00
2019-05-09T17:59:58.358Z,19.00
2019-05-09T18:02:28.149Z,19.00
2019-05-09T18:04:58.224Z,18.90
2019-05-09T18:07:28.255Z,18.90
2019-05-09T18:09:58.085Z,18.80
2019-05-09T18:12:27.700Z,18.80
2019-05-09T18:14:57.032Z,18.70
2019-05-09T18:17:27.589Z,18.70
2019-05-09T18:19:58.449Z,18.60
2019-05-09T18:22:27.744Z,18.60
2019-05-09T18:24:57.689Z,18.60
2019-05-09T18:27:27.488Z,18.70
2019-05-09T18:29:58.274Z,18.60
2019-05-09T18:32:42.528Z,18.70
2019-05-09T18:35:14.680Z,18.60
2019-05-09T18:37:43.749Z,18.60
2019-05-09T18:40:13.884Z,18.50
2019-05-09T18:42:43.047Z,18.50
2019-05-09T18:45:13.970Z,18.50
2019-05-09T18:47:48.199Z,18.40
2019-05-09T18:50:18.782Z,18.30
2019-05-09T18:52:54.098Z,18.30
2019-05-09T18:55:23.433Z,18.30
2019-05-09T18:57:52.886Z,18.30
2019-05-09T19:00:22.593Z,18.30
2019-05-09T19:02:52.000Z,18.20
2019-05-09T19:05:21.096Z,18.20
2019-05-09T19:07:50.629Z,18.20
2019-05-09T19:10:20.240Z,18.10
2019-05-09T19:12:49.517Z,18.10
2019-05-09T19:15:26.638Z,18.10
2019-05-09T19:18:06.491Z,18.10
2019-05-09T19:20:47.752Z,18.00
2019-05-09T19:23:17.223Z,18.00
2019-05-09T19:25:48.113Z,18.00
2019-05-09T19:28:17.528Z,18.10
2019-05-09T19:30:47.704Z,18.00
2019-05-09T19:33:16.949Z,18.00
2019-05-09T19:35:46.567Z,18.00
2019-05-09T19:38:15.830Z,18.00
2019-05-09T19:40:45.427Z,18.00
2019-05-09T19:43:15.592Z,17.90
2019-05-09T19:45:51.222Z,17.90
2019-05-09T19:48:25.054Z,17.80
2019-05-09T19:50:54.602Z,17.80
2019-05-09T19:53:24.138Z,17.80
2019-05-09T19:55:54.618Z,17.80
2019-05-09T19:58:23.792Z,17.80
2019-05-09T20:00:53.429Z,17.80
2019-05-09T20:03:23.710Z,17.80
2019-05-09T20:05:56.001Z,17.70
2019-05-09T20:08:25.067Z,17.70
2019-05-09T20:11:21.642Z,17.80
2019-05-09T20:14:08.709Z,17.80
2019-05-09T20:16:40.848Z,17.80
2019-05-09T20:19:10.075Z,17.80
2019-05-09T20:21:39.438Z,17.80
2019-05-09T20:24:09.378Z,17.80
2019-05-09T20:26:39.359Z,17.70
2019-05-09T20:29:08.954Z,17.80
2019-05-09T20:31:38.573Z,17.70
2019-05-09T20:34:09.318Z,17.70
2019-05-09T20:36:38.658Z,17.70
2019-05-09T20:39:08.324Z,17.70
2019-05-09T20:41:37.685Z,17.70
2019-05-09T20:44:08.519Z,17.70
2019-05-09T20:46:37.727Z,17.60
2019-05-09T20:49:07.475Z,17.60
2019-05-09T20:51:37.218Z,17.60
2019-05-09T20:54:20.077Z,17.60
2019-05-09T20:56:37.948Z,17.60
2019-05-09T20:59:07.330Z,17.60
2019-05-09T21:01:37.566Z,17.60
2019-05-09T21:04:07.146Z,17.60
2019-05-09T21:06:36.540Z,17.60
2019-05-09T21:09:07.320Z,17.70
2019-05-09T21:11:36.805Z,17.70
2019-05-09T21:14:08.342Z,17.70
2019-05-09T21:16:38.074Z,17.70
2019-05-09T21:19:07.701Z,17.70
2019-05-09T21:21:38.027Z,17.70
2019-05-09T21:24:07.441Z,17.70
2019-05-09T21:26:36.871Z,17.60
2019-05-09T21:29:07.241Z,17.60
2019-05-09T21:31:36.409Z,17.60
2019-05-09T21:34:06.227Z,17.60
2019-05-09T21:36:35.441Z,17.60
2019-05-09T21:39:06.499Z,17.60
2019-05-09T21:41:36.068Z,17.50
2019-05-09T21:44:06.039Z,17.50
2019-05-09T21:46:35.118Z,17.60
2019-05-09T21:49:04.671Z,17.50
2019-05-09T21:51:33.708Z,17.50
2019-05-09T21:54:02.666Z,17.50
2019-05-09T21:56:31.889Z,17.50
2019-05-09T21:59:01.497Z,17.40
2019-05-09T22:01:32.250Z,17.40
2019-05-09T22:04:02.122Z,17.30
2019-05-09T22:06:31.216Z,17.30
2019-05-09T22:09:00.503Z,17.30
2019-05-09T22:11:29.593Z,17.30
2019-05-09T22:13:58.708Z,17.30
2019-05-09T22:16:28.089Z,17.30
2019-05-09T22:18:57.298Z,17.30
2019-05-09T22:21:26.583Z,17.20
2019-05-09T22:23:57.026Z,17.30
2019-05-09T22:26:26.486Z,17.20
2019-05-09T22:28:55.825Z,17.20
2019-05-09T22:31:26.742Z,17.20
2019-05-09T22:33:56.432Z,17.20
2019-05-09T22:36:25.924Z,17.20
2019-05-09T22:38:55.052Z,17.20
2019-05-09T22:41:25.133Z,17.20
2019-05-09T22:43:54.164Z,17.10
2019-05-09T22:46:23.255Z,17.20
2019-05-09T22:48:52.344Z,17.10
2019-05-09T22:51:21.483Z,17.10
2019-05-09T22:53:50.609Z,17.10
2019-05-09T22:56:19.766Z,17.10
2019-05-09T22:58:50.251Z,17.00
2019-05-09T23:01:19.302Z,17.10
2019-05-09T23:03:48.195Z,17.00
2019-05-09T23:06:17.228Z,17.00
2019-05-09T23:08:46.268Z,17.00
2019-05-09T23:11:15.545Z,17.00
2019-05-09T23:13:53.794Z,17.00
2019-05-09T23:16:27.506Z,17.00
2019-05-09T23:18:56.586Z,17.00
2019-05-09T23:21:27.893Z,17.00
2019-05-09T23:24:00.136Z,16.90
2019-05-09T23:26:29.133Z,16.90
2019-05-09T23:28:58.167Z,16.90
2019-05-09T23:31:41.531Z,16.90
2019-05-09T23:34:10.515Z,16.90
2019-05-09T23:36:39.518Z,16.90
2019-05-09T23:39:16.643Z,16.90
2019-05-09T23:41:45.603Z,16.90
2019-05-09T23:44:14.690Z,16.90
2019-05-09T23:46:43.895Z,16.90
2019-05-09T23:49:12.791Z,16.90
2019-05-09T23:52:00.100Z,16.90
2019-05-09T23:54:47.871Z,16.90
2019-05-09T23:57:35.095Z,16.90
